Raunds, United Kingdom
Current Conditions -  °F | °C
As of 3:20 PM on Monday 24 Nov 2014 (Local Time) from EGTC Reporting Station
Clear Clear  
Wind Chill: 45°   Ceiling: Unl
Heat Index: 45°   Visibility: 6mi
Dew Point: 41°   Wind: 3mph
Humidity: 87%   Direction: NA
Pressure: 30.3"   Gusts: NA
Location:  52.34°N, 0.54°W
Report Text: EGTC 241520Z VRB03KT CAVOK 07/05 Q1026
Loading
Personal Weather Stations






























Interactive Weather Map New forecast layout! Learn more

10-Day Weather Forecast

Advertisements
Track Severe Weather on mobile